Time;durP1;ratioP1;P1;durP2;ratioP2;P2;SDS_P1;SDS_P2;PMS_P1;PMS_P2;Temp;Humidity;BMP_temperature;BMP_pressure;BME280_temperature;BME280_humidity;BME280_pressure;Samples;Min_cycle;Max_cycle;Signal;HPM_P1;HPM_P2
2024/01/19 00:00:17;;;;;;;769.10;705.45;;;-3.20;99.90;;;;;;5034120;28;20685;-65
2024/01/19 00:02:43;;;;;;;804.53;736.78;;;-3.50;99.90;;;;;;5032359;28;20221;-66
2024/01/19 00:05:10;;;;;;;790.88;722.97;;;-3.30;99.90;;;;;;5021685;28;20223;-65
2024/01/19 00:07:38;;;;;;;808.95;734.97;;;-3.40;99.90;;;;;;5030575;28;20206;-65
2024/01/19 00:10:06;;;;;;;795.65;728.33;;;-3.10;99.90;;;;;;5032611;28;20201;-65
2024/01/19 00:12:35;;;;;;;809.50;738.90;;;-2.90;99.90;;;;;;5024595;28;20265;-66
2024/01/19 00:15:03;;;;;;;812.85;748.70;;;-3.00;99.90;;;;;;5029144;28;20201;-65
2024/01/19 00:17:29;;;;;;;830.00;758.60;;;-3.00;99.90;;;;;;5021465;28;20210;-64
2024/01/19 00:19:56;;;;;;;813.65;744.22;;;-3.00;99.90;;;;;;5032993;28;20215;-65
2024/01/19 00:22:23;;;;;;;822.88;747.75;;;-2.90;99.90;;;;;;5032954;28;20225;-65
2024/01/19 00:24:51;;;;;;;831.55;761.13;;;-3.30;99.90;;;;;;5024722;28;20223;-64
2024/01/19 00:27:18;;;;;;;843.08;774.05;;;-2.80;99.90;;;;;;5026261;28;20212;-65
2024/01/19 00:29:44;;;;;;;815.03;746.30;;;-2.80;99.90;;;;;;5031217;28;20202;-65
2024/01/19 00:32:11;;;;;;;800.58;734.17;;;-2.80;99.90;;;;;;5032781;28;20228;-66
2024/01/19 00:34:38;;;;;;;805.20;738.70;;;-2.70;99.90;;;;;;5032728;28;20205;-65
2024/01/19 00:37:07;;;;;;;813.67;746.58;;;-3.00;99.90;;;;;;5020018;28;20205;-65
2024/01/19 00:39:34;;;;;;;827.13;751.53;;;-2.60;99.90;;;;;;5029018;28;20583;-65
2024/01/19 00:42:02;;;;;;;806.90;740.17;;;-2.50;99.90;;;;;;5032843;28;20225;-65
2024/01/19 00:44:29;;;;;;;807.47;735.08;;;-2.50;99.90;;;;;;5024683;28;20234;-65
2024/01/19 00:46:56;;;;;;;804.95;739.60;;;-2.50;99.90;;;;;;5032478;28;20203;-65
2024/01/19 00:49:23;;;;;;;797.15;733.88;;;-2.40;99.90;;;;;;5025249;28;20205;-65
2024/01/19 00:51:50;;;;;;;812.22;749.05;;;-2.40;99.90;;;;;;5031090;28;20233;-66
2024/01/19 00:54:17;;;;;;;801.22;738.38;;;-2.40;99.90;;;;;;5024003;28;20227;-66
2024/01/19 00:56:44;;;;;;;831.10;763.03;;;-2.40;99.90;;;;;;5032467;28;20199;-66
2024/01/19 00:59:12;;;;;;;823.30;754.55;;;-2.30;99.90;;;;;;5018700;28;20196;-66
2024/01/19 01:01:39;;;;;;;817.53;749.95;;;-2.30;99.90;;;;;;5013470;28;20208;-65
2024/01/19 01:04:06;;;;;;;806.72;740.35;;;-2.30;99.90;;;;;;5019414;28;20217;-64
2024/01/19 01:06:32;;;;;;;795.78;734.28;;;-2.30;99.90;;;;;;5024884;28;20201;-66
2024/01/19 01:08:59;;;;;;;809.50;743.00;;;-2.30;99.90;;;;;;5028066;28;20209;-65
2024/01/19 01:11:27;;;;;;;806.50;734.60;;;-2.30;99.90;;;;;;5027852;28;20455;-66
2024/01/19 01:13:54;;;;;;;800.13;733.90;;;-2.30;99.90;;;;;;5020905;28;20482;-65
2024/01/19 01:16:22;;;;;;;783.60;720.27;;;-2.30;99.90;;;;;;5019179;28;20554;-65
2024/01/19 01:18:49;;;;;;;789.35;718.72;;;-2.20;99.90;;;;;;5023707;28;20453;-66
2024/01/19 01:21:16;;;;;;;789.57;716.87;;;-2.20;99.90;;;;;;5017284;28;20203;-66
2024/01/19 01:23:43;;;;;;;798.55;730.00;;;-2.20;99.90;;;;;;5021433;28;20479;-65
2024/01/19 01:26:10;;;;;;;785.17;723.60;;;-2.20;99.90;;;;;;5031934;28;20695;-66
2024/01/19 01:28:36;;;;;;;805.60;740.08;;;-2.20;99.90;;;;;;5022925;28;20486;-66
2024/01/19 01:31:04;;;;;;;812.20;743.80;;;-2.10;99.90;;;;;;5016473;28;20207;-66
2024/01/19 01:33:32;;;;;;;798.20;734.50;;;-2.10;99.90;;;;;;5031770;28;20529;-66
2024/01/19 01:35:59;;;;;;;805.50;739.67;;;-2.10;99.90;;;;;;5015924;28;20454;-65
2024/01/19 01:38:25;;;;;;;792.47;727.53;;;-2.10;99.90;;;;;;5023339;28;20208;-65
2024/01/19 01:40:52;;;;;;;819.57;749.17;;;-2.10;99.90;;;;;;5015400;28;20672;-66
2024/01/19 01:43:24;;;;;;;795.45;730.10;;;-2.10;99.90;;;;;;5025326;28;20533;-66
2024/01/19 01:45:51;;;;;;;797.90;733.60;;;-2.10;99.90;;;;;;5031280;28;20628;-66
2024/01/19 01:48:19;;;;;;;795.03;728.70;;;-2.10;99.90;;;;;;5031408;28;20459;-66
2024/01/19 01:50:47;;;;;;;793.87;728.87;;;-2.00;99.90;;;;;;5023670;28;20442;-65
2024/01/19 01:53:18;;;;;;;798.65;731.45;;;-2.00;99.90;;;;;;5031707;28;20494;-65
2024/01/19 01:55:45;;;;;;;778.63;716.37;;;-2.00;99.90;;;;;;5021644;28;20666;-66
2024/01/19 01:58:13;;;;;;;772.60;713.88;;;-2.00;99.90;;;;;;5025043;28;20463;-65
2024/01/19 02:00:43;;;;;;;774.35;711.05;;;-2.00;99.90;;;;;;5023339;28;20204;-66
2024/01/19 02:03:10;;;;;;;778.90;719.30;;;-1.90;99.90;;;;;;5031921;28;20227;-65
2024/01/19 02:05:37;;;;;;;782.83;722.70;;;-1.90;99.90;;;;;;5023105;28;20316;-65
2024/01/19 02:08:05;;;;;;;776.58;716.03;;;-1.90;99.90;;;;;;5031245;28;20694;-65
2024/01/19 02:10:32;;;;;;;781.70;718.45;;;-1.90;99.90;;;;;;5023196;28;20568;-65
2024/01/19 02:12:59;;;;;;;787.10;725.97;;;-1.90;99.90;;;;;;5031439;28;20226;-65
2024/01/19 02:15:27;;;;;;;760.07;699.60;;;-1.90;99.90;;;;;;5031358;28;20522;-65
2024/01/19 02:17:54;;;;;;;743.45;682.83;;;-1.80;99.90;;;;;;5031359;28;20550;-65
2024/01/19 02:20:22;;;;;;;721.20;665.67;;;-1.80;99.90;;;;;;5023175;28;20207;-64
2024/01/19 02:22:49;;;;;;;707.20;651.50;;;-1.90;99.90;;;;;;5020926;28;20481;-65
2024/01/19 02:25:18;;;;;;;699.40;645.85;;;-1.90;99.90;;;;;;5017712;28;20863;-65
2024/01/19 02:27:44;;;;;;;716.90;660.47;;;-1.90;99.90;;;;;;5022778;28;20204;-65
2024/01/19 02:30:12;;;;;;;752.67;693.47;;;-1.90;99.90;;;;;;5031127;28;20209;-65
2024/01/19 02:32:39;;;;;;;758.83;699.57;;;-1.80;99.90;;;;;;5031421;28;20228;-65
2024/01/19 02:35:06;;;;;;;758.57;697.77;;;-1.80;99.90;;;;;;5021863;28;20458;-64
2024/01/19 02:37:33;;;;;;;768.77;707.17;;;-1.70;99.90;;;;;;5031353;28;20458;-65
2024/01/19 02:40:01;;;;;;;767.87;708.50;;;-1.60;99.90;;;;;;5034825;28;20454;-65
2024/01/19 02:42:30;;;;;;;766.70;706.20;;;-1.60;99.90;;;;;;5026366;28;20480;-65
2024/01/19 02:44:59;;;;;;;770.90;708.90;;;-1.60;99.90;;;;;;5031344;28;20484;-65
2024/01/19 02:47:26;;;;;;;757.45;696.35;;;-1.50;99.90;;;;;;5023142;28;20494;-64
2024/01/19 02:49:53;;;;;;;758.53;697.45;;;-1.50;99.90;;;;;;5014891;28;20663;-65
2024/01/19 02:52:20;;;;;;;753.57;693.53;;;-1.40;99.90;;;;;;5023114;28;20265;-65
2024/01/19 02:54:47;;;;;;;761.03;702.28;;;-1.40;99.90;;;;;;5033214;28;20943;-64
2024/01/19 02:57:14;;;;;;;769.17;709.97;;;-1.30;99.90;;;;;;5034304;28;20211;-65
2024/01/19 02:59:42;;;;;;;759.90;698.97;;;-1.30;99.90;;;;;;5034412;28;20212;-65
2024/01/19 03:02:09;;;;;;;764.53;703.73;;;-1.20;99.90;;;;;;5026328;28;20861;-65
2024/01/19 03:04:36;;;;;;;779.30;720.40;;;-1.20;99.90;;;;;;5034422;28;20877;-65
2024/01/19 03:07:03;;;;;;;783.77;723.70;;;-1.20;99.90;;;;;;5034449;28;20458;-65
2024/01/19 03:09:29;;;;;;;787.63;727.37;;;-1.10;99.90;;;;;;5025959;28;20959;-64
2024/01/19 03:11:56;;;;;;;784.78;723.40;;;-1.10;99.90;;;;;;5034515;28;20852;-65
2024/01/19 03:14:23;;;;;;;786.83;725.23;;;-1.10;99.90;;;;;;5034584;28;20586;-65
2024/01/19 03:16:51;;;;;;;788.07;727.43;;;-1.10;99.90;;;;;;5026046;28;20459;-65
2024/01/19 03:19:18;;;;;;;785.75;725.72;;;-1.00;99.90;;;;;;5034270;28;20502;-65
2024/01/19 03:21:45;;;;;;;790.17;730.07;;;-1.00;99.90;;;;;;5033764;28;20197;-65
2024/01/19 03:24:12;;;;;;;802.27;739.83;;;-1.00;99.90;;;;;;5034079;28;20455;-65
2024/01/19 03:26:42;;;;;;;786.03;725.67;;;-1.00;99.90;;;;;;5033041;28;21005;-65
2024/01/19 03:29:08;;;;;;;788.92;730.20;;;-1.00;99.90;;;;;;5019118;28;20463;-65
2024/01/19 03:31:35;;;;;;;787.90;727.47;;;-1.00;99.90;;;;;;5034238;28;20201;-65
2024/01/19 03:34:03;;;;;;;794.90;735.60;;;-1.00;99.90;;;;;;5029781;28;20453;-65
2024/01/19 03:36:30;;;;;;;798.30;737.53;;;-0.90;99.90;;;;;;5014002;28;20445;-64
2024/01/19 03:38:57;;;;;;;800.63;740.67;;;-0.90;99.90;;;;;;5017525;28;20228;-65
2024/01/19 03:41:23;;;;;;;796.23;735.63;;;-0.90;99.90;;;;;;5026951;28;20537;-65
2024/01/19 03:43:50;;;;;;;791.63;732.23;;;-0.90;99.90;;;;;;5024395;28;20480;-65
2024/01/19 03:46:17;;;;;;;801.93;740.80;;;-0.90;99.90;;;;;;5032785;28;20858;-64
2024/01/19 03:48:44;;;;;;;805.73;744.77;;;-0.90;99.90;;;;;;5033472;28;20463;-65
2024/01/19 03:51:13;;;;;;;798.90;739.35;;;-0.90;99.90;;;;;;5025094;28;20459;-65
2024/01/19 03:53:43;;;;;;;797.30;737.37;;;-0.90;99.90;;;;;;5025295;28;20230;-65
2024/01/19 03:56:10;;;;;;;789.40;731.37;;;-0.80;99.90;;;;;;5033592;28;20462;-65
2024/01/19 03:58:37;;;;;;;782.93;726.63;;;-0.80;99.90;;;;;;5024898;28;20463;-64
2024/01/19 04:01:05;;;;;;;801.73;744.50;;;-0.80;99.90;;;;;;5033180;28;20452;-65
2024/01/19 04:03:32;;;;;;;803.33;746.00;;;-0.80;99.90;;;;;;5033244;28;20513;-65
2024/01/19 04:05:59;;;;;;;801.47;745.17;;;-0.80;99.90;;;;;;5024952;28;20866;-65
2024/01/19 04:08:27;;;;;;;806.70;749.20;;;-0.80;99.90;;;;;;5033279;28;20560;-66
2024/01/19 04:10:54;;;;;;;796.47;739.70;;;-0.70;99.90;;;;;;5024842;28;20468;-65
2024/01/19 04:13:21;;;;;;;799.93;742.43;;;-0.70;99.90;;;;;;5033252;28;20471;-65
2024/01/19 04:15:48;;;;;;;793.50;737.20;;;-0.70;99.90;;;;;;5030823;28;20452;-65
2024/01/19 04:18:15;;;;;;;792.23;733.40;;;-0.70;99.90;;;;;;5018616;28;20464;-64
2024/01/19 04:20:41;;;;;;;786.77;729.20;;;-0.70;99.90;;;;;;5033051;28;20459;-65
2024/01/19 04:23:08;;;;;;;787.73;729.67;;;-0.70;99.90;;;;;;5032992;28;20482;-65
2024/01/19 04:25:37;;;;;;;786.23;729.27;;;-0.70;99.90;;;;;;5024228;28;21090;-65
2024/01/19 04:28:04;;;;;;;793.10;735.37;;;-0.70;99.90;;;;;;5021106;28;20831;-65
2024/01/19 04:30:31;;;;;;;792.80;735.10;;;-0.70;99.90;;;;;;5021142;28;20453;-65
2024/01/19 04:32:57;;;;;;;793.83;734.77;;;-0.60;99.90;;;;;;5013121;28;20469;-65
2024/01/19 04:35:24;;;;;;;790.03;732.47;;;-0.60;99.90;;;;;;5020606;28;20480;-64
2024/01/19 04:37:51;;;;;;;789.33;732.57;;;-0.60;99.90;;;;;;5021789;28;20539;-65
2024/01/19 04:40:18;;;;;;;785.90;727.47;;;-0.60;99.90;;;;;;5027432;28;20448;-66
2024/01/19 04:42:46;;;;;;;789.25;732.28;;;-0.60;99.90;;;;;;5032485;28;20465;-65
2024/01/19 04:45:13;;;;;;;799.15;741.85;;;-0.50;99.90;;;;;;5032350;28;20222;-65
2024/01/19 04:47:39;;;;;;;814.90;756.83;;;-0.50;99.90;;;;;;5032142;28;20248;-65
2024/01/19 04:50:07;;;;;;;800.50;741.50;;;-0.50;99.90;;;;;;5032448;28;20465;-65
2024/01/19 04:52:34;;;;;;;807.47;748.87;;;-0.50;99.90;;;;;;5032400;28;20472;-65
2024/01/19 04:55:01;;;;;;;800.93;744.43;;;-0.50;99.90;;;;;;5032310;28;20467;-64
2024/01/19 04:57:27;;;;;;;797.67;739.90;;;-0.60;99.90;;;;;;5023960;28;20487;-65
2024/01/19 04:59:55;;;;;;;786.80;728.60;;;-0.50;99.90;;;;;;5023719;28;20456;-64
2024/01/19 05:02:22;;;;;;;783.22;725.92;;;-0.60;99.90;;;;;;5032033;28;20483;-65
2024/01/19 05:04:49;;;;;;;799.00;743.03;;;-0.60;99.90;;;;;;5032236;28;20201;-65
2024/01/19 05:07:16;;;;;;;773.00;717.23;;;-0.70;99.90;;;;;;5032108;28;20486;-65
2024/01/19 05:09:43;;;;;;;780.80;725.90;;;-0.70;99.90;;;;;;5032134;28;20554;-65
2024/01/19 05:12:10;;;;;;;778.83;724.13;;;-0.70;99.90;;;;;;5032298;28;20476;-65
2024/01/19 05:14:37;;;;;;;779.43;724.43;;;-0.80;99.90;;;;;;5023417;28;20970;-65
2024/01/19 05:17:05;;;;;;;778.60;724.20;;;-0.80;99.90;;;;;;5020731;28;20463;-65
2024/01/19 05:19:32;;;;;;;775.70;721.50;;;-0.90;99.90;;;;;;5020214;28;20463;-64
2024/01/19 05:21:59;;;;;;;772.03;717.83;;;-0.90;99.90;;;;;;5032146;28;20472;-65
2024/01/19 05:24:25;;;;;;;781.67;725.87;;;-0.90;99.90;;;;;;5024039;28;20202;-65
2024/01/19 05:26:52;;;;;;;781.37;725.80;;;-0.90;99.90;;;;;;5029029;28;20497;-64
2024/01/19 05:29:19;;;;;;;765.53;712.17;;;-0.90;99.90;;;;;;5020120;28;20911;-65
2024/01/19 05:31:46;;;;;;;777.87;723.67;;;-0.90;99.90;;;;;;5028372;28;20452;-66
2024/01/19 05:34:14;;;;;;;756.50;703.67;;;-0.90;99.90;;;;;;5026662;28;20459;-66
2024/01/19 05:36:42;;;;;;;748.10;696.70;;;-1.00;99.90;;;;;;5032080;28;20456;-66
2024/01/19 05:39:08;;;;;;;754.00;702.23;;;-1.00;99.90;;;;;;5019340;28;20515;-66
2024/01/19 05:41:35;;;;;;;746.07;694.67;;;-1.00;99.90;;;;;;5029901;28;20448;-65
2024/01/19 05:44:02;;;;;;;746.60;695.07;;;-1.00;99.90;;;;;;5032699;28;20472;-65
2024/01/19 05:46:29;;;;;;;730.57;679.47;;;-1.10;99.90;;;;;;5032205;28;20567;-65
2024/01/19 05:48:56;;;;;;;748.00;697.60;;;-1.10;99.90;;;;;;5032187;28;20463;-65
2024/01/19 05:51:24;;;;;;;755.43;703.27;;;-1.10;99.90;;;;;;5023804;28;20452;-65
2024/01/19 05:53:53;;;;;;;744.33;692.20;;;-1.10;99.90;;;;;;5029197;28;20480;-66
2024/01/19 05:56:20;;;;;;;770.23;716.40;;;-1.00;99.90;;;;;;5026908;28;20500;-65
2024/01/19 05:58:47;;;;;;;759.00;707.00;;;-1.00;99.90;;;;;;5032131;28;20521;-66
2024/01/19 06:01:13;;;;;;;757.20;704.17;;;-1.00;99.90;;;;;;5026247;28;20461;-65
2024/01/19 06:03:41;;;;;;;761.70;709.60;;;-1.00;99.90;;;;;;5027965;28;20483;-65
2024/01/19 06:06:07;;;;;;;741.77;690.27;;;-1.00;99.90;;;;;;5031842;28;20857;-65
2024/01/19 06:08:36;;;;;;;732.70;681.80;;;-1.00;99.90;;;;;;5024328;28;20864;-65
2024/01/19 06:11:03;;;;;;;723.90;672.70;;;-1.00;99.90;;;;;;5035626;28;20461;-65
2024/01/19 06:13:30;;;;;;;720.03;669.43;;;-1.10;99.90;;;;;;5027989;28;20518;-65
2024/01/19 06:15:58;;;;;;;716.77;665.73;;;-1.10;99.90;;;;;;5019659;28;20448;-65
2024/01/19 06:18:24;;;;;;;712.15;660.90;;;-1.30;99.90;;;;;;5019824;28;20844;-66
2024/01/19 06:20:51;;;;;;;702.78;652.92;;;-1.40;99.90;;;;;;5026367;28;20594;-65
2024/01/19 06:23:18;;;;;;;692.53;642.37;;;-1.50;99.90;;;;;;5020481;28;20315;-65
2024/01/19 06:25:46;;;;;;;695.73;645.97;;;-1.60;99.90;;;;;;5023651;28;20480;-65
2024/01/19 06:28:13;;;;;;;705.30;656.17;;;-1.70;99.90;;;;;;5029086;28;20452;-65
2024/01/19 06:30:42;;;;;;;647.58;605.20;;;-1.90;99.90;;;;;;5034471;28;20559;-66
2024/01/19 06:33:09;;;;;;;634.00;589.53;;;-2.10;99.90;;;;;;5022087;28;20222;-66
2024/01/19 06:35:36;;;;;;;621.03;577.08;;;-2.30;99.90;;;;;;5032172;28;20201;-66
2024/01/19 06:38:03;;;;;;;611.53;568.00;;;-2.50;99.90;;;;;;5034666;28;20209;-66
2024/01/19 06:40:30;;;;;;;608.28;563.80;;;-2.60;99.90;;;;;;5035232;28;20867;-65
2024/01/19 06:42:59;;;;;;;626.67;578.08;;;-2.70;99.90;;;;;;5035140;28;20684;-65
2024/01/19 06:45:25;;;;;;;628.42;579.80;;;-2.70;99.90;;;;;;5035052;28;20208;-65
2024/01/19 06:47:52;;;;;;;634.22;587.15;;;-2.80;99.90;;;;;;5026744;28;20614;-65
2024/01/19 06:50:19;;;;;;;653.50;605.90;;;-3.00;99.90;;;;;;5034438;28;20576;-66
2024/01/19 06:52:46;;;;;;;640.17;592.92;;;-2.90;99.90;;;;;;5025827;28;20609;-66
2024/01/19 06:55:12;;;;;;;627.50;580.67;;;-3.00;99.90;;;;;;5034732;28;20208;-65
2024/01/19 06:57:39;;;;;;;604.13;558.65;;;-3.20;99.90;;;;;;5034260;28;20209;-66
2024/01/19 07:00:09;;;;;;;585.17;542.22;;;-3.20;99.90;;;;;;5034830;28;20200;-66
2024/01/19 07:02:36;;;;;;;655.95;607.90;;;-3.50;99.90;;;;;;5034735;28;20227;-66
2024/01/19 07:05:03;;;;;;;711.70;660.15;;;-3.00;99.90;;;;;;5034608;28;20383;-66
2024/01/19 07:07:30;;;;;;;710.42;659.60;;;-2.80;99.90;;;;;;5026121;28;20251;-66
2024/01/19 07:09:56;;;;;;;735.45;682.10;;;-2.40;99.90;;;;;;5034015;28;20221;-65
2024/01/19 07:12:23;;;;;;;722.55;669.95;;;-2.10;99.90;;;;;;5027421;28;20246;-66
2024/01/19 07:14:50;;;;;;;705.00;655.13;;;-1.90;99.90;;;;;;5033205;28;20203;-66
2024/01/19 07:17:18;;;;;;;695.08;646.17;;;-1.90;99.90;;;;;;5034012;28;20209;-66
2024/01/19 07:19:45;;;;;;;680.90;629.58;;;-1.90;99.90;;;;;;5033219;28;20205;-66
2024/01/19 07:22:12;;;;;;;688.97;639.17;;;-1.90;99.90;;;;;;5034143;28;20226;-66
2024/01/19 07:24:42;;;;;;;680.45;631.08;;;-1.80;99.90;;;;;;5025818;28;20991;-65
2024/01/19 07:27:08;;;;;;;674.35;625.72;;;-1.80;99.90;;;;;;5029159;28;20226;-66
2024/01/19 07:29:35;;;;;;;677.97;628.97;;;-1.90;99.90;;;;;;5014470;28;20208;-66
2024/01/19 07:32:02;;;;;;;671.95;623.08;;;-2.00;99.90;;;;;;5033935;28;20478;-65
2024/01/19 07:34:30;;;;;;;660.03;611.80;;;-2.10;99.90;;;;;;5026599;28;20288;-66
2024/01/19 07:36:57;;;;;;;645.92;600.10;;;-2.10;99.90;;;;;;5017869;28;20462;-65
2024/01/19 07:39:26;;;;;;;658.60;610.83;;;-2.20;99.90;;;;;;5033876;28;20610;-66
2024/01/19 07:41:52;;;;;;;658.55;610.78;;;-2.20;99.90;;;;;;5017448;28;20848;-66
2024/01/19 07:44:19;;;;;;;677.42;628.20;;;-2.20;99.90;;;;;;5027281;28;20209;-66
2024/01/19 07:46:46;;;;;;;674.60;626.35;;;-2.20;99.90;;;;;;5022025;28;20604;-65
2024/01/19 07:49:13;;;;;;;644.63;601.20;;;-2.20;99.90;;;;;;5019598;28;20208;-65
2024/01/19 07:51:41;;;;;;;661.93;617.50;;;-2.10;99.90;;;;;;5033915;28;20563;-65
2024/01/19 07:54:08;;;;;;;661.80;615.03;;;-2.00;99.90;;;;;;5028211;28;20478;-65
2024/01/19 07:56:35;;;;;;;680.53;634.80;;;-2.00;99.90;;;;;;5025264;28;20224;-65
2024/01/19 07:59:02;;;;;;;688.25;640.80;;;-1.90;99.90;;;;;;5022097;28;20453;-65
2024/01/19 08:01:29;;;;;;;659.47;612.40;;;-1.90;99.90;;;;;;5028033;28;20213;-64
2024/01/19 08:03:55;;;;;;;661.90;614.55;;;-1.80;99.90;;;;;;5031881;28;20497;-65
2024/01/19 08:06:22;;;;;;;667.78;619.80;;;-1.80;99.90;;;;;;5017506;28;20244;-65
2024/01/19 08:08:50;;;;;;;670.50;622.57;;;-1.70;99.90;;;;;;5023231;28;20208;-65
2024/01/19 08:11:17;;;;;;;689.07;640.37;;;-1.60;99.90;;;;;;5021418;28;20463;-66
2024/01/19 08:13:44;;;;;;;680.63;632.63;;;-1.50;99.90;;;;;;5022215;28;20478;-66
2024/01/19 08:16:11;;;;;;;685.00;636.03;;;-1.40;99.90;;;;;;5024746;28;20539;-66
2024/01/19 08:18:38;;;;;;;663.20;618.70;;;-1.30;99.90;;;;;;5031979;28;20952;-66
2024/01/19 08:21:05;;;;;;;632.03;588.53;;;-1.20;99.90;;;;;;5030723;28;20493;-66
2024/01/19 08:23:33;;;;;;;643.57;598.93;;;-1.20;99.90;;;;;;5032289;28;20869;-67
2024/01/19 08:26:01;;;;;;;609.72;569.35;;;-1.20;99.90;;;;;;5015429;28;20847;-66
2024/01/19 08:28:28;;;;;;;568.37;531.00;;;-1.30;99.90;;;;;;5024089;28;20206;-66
2024/01/19 08:30:54;;;;;;;556.13;519.57;;;-1.40;99.90;;;;;;5031787;28;20463;-66
2024/01/19 08:33:22;;;;;;;552.87;516.27;;;-1.40;99.90;;;;;;5032924;28;20472;-65
2024/01/19 08:35:49;;;;;;;535.67;501.20;;;-1.50;99.90;;;;;;5022523;28;20456;-66
2024/01/19 08:38:16;;;;;;;548.93;511.23;;;-1.50;99.90;;;;;;5018778;28;20460;-65
2024/01/19 08:40:43;;;;;;;572.77;533.83;;;-1.50;99.90;;;;;;5031263;28;20453;-66
2024/01/19 08:43:11;;;;;;;566.80;529.60;;;-1.50;99.90;;;;;;5012372;28;20483;-65
2024/01/19 08:45:38;;;;;;;571.60;532.85;;;-1.30;99.90;;;;;;5020944;28;20465;-66
2024/01/19 08:48:06;;;;;;;565.50;530.70;;;-1.20;99.90;;;;;;5012869;28;20230;-65
2024/01/19 08:50:33;;;;;;;570.73;534.23;;;-1.10;99.90;;;;;;5012682;28;20452;-65
2024/01/19 08:52:59;;;;;;;587.17;550.80;;;-1.00;99.90;;;;;;5012676;28;20487;-66
2024/01/19 08:55:26;;;;;;;559.50;522.47;;;-1.00;99.90;;;;;;5012746;28;20941;-66
2024/01/19 08:57:53;;;;;;;536.37;500.77;;;-0.90;99.90;;;;;;5012756;28;20457;-66
2024/01/19 09:00:21;;;;;;;481.53;452.73;;;-0.80;99.90;;;;;;5012784;28;20459;-66
2024/01/19 09:02:49;;;;;;;499.30;468.00;;;-0.90;99.90;;;;;;5012715;28;20471;-66
2024/01/19 09:05:16;;;;;;;532.10;497.60;;;-0.80;99.90;;;;;;5012926;28;20455;-66
2024/01/19 09:07:43;;;;;;;518.37;486.07;;;-0.70;99.90;;;;;;5012418;28;20480;-65
2024/01/19 09:10:10;;;;;;;485.93;455.50;;;-0.60;99.90;;;;;;5013046;28;20453;-66
2024/01/19 09:12:37;;;;;;;446.65;419.85;;;-0.50;99.90;;;;;;5012619;28;20637;-67
2024/01/19 09:15:04;;;;;;;458.70;430.53;;;-0.50;99.90;;;;;;5012636;28;20206;-66
2024/01/19 09:17:33;;;;;;;422.90;396.60;;;-0.50;99.90;;;;;;5012568;28;20456;-66
2024/01/19 09:20:02;;;;;;;418.77;391.47;;;-0.40;99.90;;;;;;5004697;28;20453;-66
2024/01/19 09:22:29;;;;;;;376.47;352.90;;;-0.40;99.90;;;;;;5012398;28;20507;-66
2024/01/19 09:24:56;;;;;;;395.97;372.43;;;-0.30;99.90;;;;;;5019971;28;20449;-66
2024/01/19 09:27:22;;;;;;;399.63;374.80;;;-0.20;99.90;;;;;;5012143;28;20480;-66
2024/01/19 09:29:49;;;;;;;401.70;376.03;;;-0.10;99.90;;;;;;5012163;28;20453;-66
2024/01/19 09:32:17;;;;;;;391.67;367.63;;;-0.10;99.90;;;;;;5012483;28;20907;-66
2024/01/19 09:34:46;;;;;;;352.73;330.13;;;0.00;99.90;;;;;;5012505;28;20450;-66
2024/01/19 09:37:13;;;;;;;318.77;299.43;;;0.00;99.90;;;;;;5012353;28;20459;-66
2024/01/19 09:39:40;;;;;;;318.77;298.73;;;0.00;99.90;;;;;;5012230;28;20459;-66
2024/01/19 09:42:13;;;;;;;302.13;284.23;;;0.10;99.90;;;;;;5012347;28;20480;-67
2024/01/19 09:44:49;;;;;;;298.87;280.33;;;0.10;99.90;;;;;;5015428;28;20457;-66
2024/01/19 09:47:18;;;;;;;284.57;267.83;;;0.20;99.90;;;;;;5016192;28;20490;-66
2024/01/19 09:50:01;;;;;;;294.43;277.60;;;0.30;99.90;;;;;;5016037;28;20457;-66
2024/01/19 09:52:41;;;;;;;286.37;269.23;;;0.50;99.90;;;;;;5016162;28;20476;-66
2024/01/19 09:55:10;;;;;;;286.10;269.37;;;0.70;99.90;;;;;;5009553;28;20442;-66
2024/01/19 09:57:45;;;;;;;260.80;245.67;;;0.90;99.90;;;;;;5015858;28;20542;-65
2024/01/19 10:00:14;;;;;;;236.30;222.80;;;0.80;99.90;;;;;;5016170;28;20467;-66
2024/01/19 10:02:45;;;;;;;238.00;223.50;;;0.80;99.90;;;;;;5015938;28;20469;-66
2024/01/19 10:05:14;;;;;;;237.00;224.27;;;0.90;99.90;;;;;;5021290;28;20456;-66
2024/01/19 10:07:42;;;;;;;227.83;214.97;;;1.00;99.90;;;;;;5035008;28;20488;-66
2024/01/19 10:10:10;;;;;;;183.00;172.60;;;1.00;99.90;;;;;;5035539;28;20455;-66
2024/01/19 10:12:37;;;;;;;149.50;139.17;;;1.10;99.90;;;;;;5026389;28;20489;-66
2024/01/19 10:15:06;;;;;;;153.97;143.97;;;1.20;99.90;;;;;;5028335;28;20461;-66
2024/01/19 10:17:35;;;;;;;143.47;134.07;;;1.30;99.90;;;;;;5027139;28;20847;-66
2024/01/19 10:20:03;;;;;;;92.93;84.93;;;1.60;99.90;;;;;;5031807;28;20833;-66
2024/01/19 10:22:32;;;;;;;51.03;35.13;;;1.80;99.90;;;;;;5014457;28;20462;-66
2024/01/19 10:25:00;;;;;;;49.40;38.93;;;1.90;99.90;;;;;;5007575;28;20207;-66
2024/01/19 10:27:39;;;;;;;45.27;33.00;;;2.00;99.90;;;;;;5023559;28;20484;-66
2024/01/19 10:30:10;;;;;;;46.73;35.83;;;1.90;99.90;;;;;;5021015;28;20883;-66
2024/01/19 10:32:39;;;;;;;53.57;35.70;;;2.10;99.90;;;;;;5026917;28;20481;-66
2024/01/19 10:35:07;;;;;;;50.03;31.70;;;2.10;99.90;;;;;;5035163;28;20481;-66
2024/01/19 10:37:35;;;;;;;51.03;29.97;;;2.20;99.90;;;;;;5034684;28;20445;-65
2024/01/19 10:40:15;;;;;;;45.57;26.20;;;2.50;99.90;;;;;;5023083;28;20453;-65
2024/01/19 10:42:43;;;;;;;45.83;26.93;;;2.50;99.90;;;;;;5023394;28;20985;-66
2024/01/19 10:45:18;;;;;;;45.50;24.07;;;2.60;99.90;;;;;;5020554;28;20456;-65
2024/01/19 10:47:46;;;;;;;35.53;23.83;;;2.80;99.90;;;;;;5032953;28;20482;-66
2024/01/19 10:50:14;;;;;;;35.33;21.97;;;2.70;99.90;;;;;;5028551;28;20469;-65
2024/01/19 10:52:44;;;;;;;44.70;23.43;;;2.70;99.90;;;;;;5026478;28;20549;-66
2024/01/19 10:55:16;;;;;;;34.13;19.47;;;2.90;99.90;;;;;;5034640;28;20834;-65
2024/01/19 10:57:43;;;;;;;31.20;19.20;;;3.00;99.90;;;;;;5024933;28;20458;-66
2024/01/19 11:00:21;;;;;;;37.27;20.60;;;3.30;99.90;;;;;;5019978;28;20460;-66
2024/01/19 11:02:51;;;;;;;36.80;19.43;;;3.10;99.90;;;;;;5034601;28;20567;-66
2024/01/19 11:05:19;;;;;;;38.03;18.83;;;3.00;99.90;;;;;;5026454;28;20614;-66
2024/01/19 11:07:50;;;;;;;33.23;19.57;;;2.70;99.90;;;;;;5034648;28;20480;-66
2024/01/19 11:10:17;;;;;;;31.67;20.20;;;2.40;99.90;;;;;;5026311;28;20546;-65
2024/01/19 11:12:48;;;;;;;33.27;20.13;;;2.40;99.90;;;;;;5026069;28;20510;-66
2024/01/19 11:15:21;;;;;;;30.90;17.83;;;2.70;99.90;;;;;;5028699;28;20455;-66
2024/01/19 11:17:48;;;;;;;28.97;17.50;;;2.80;99.90;;;;;;5021177;28;20827;-66
2024/01/19 11:20:15;;;;;;;30.93;17.97;;;3.20;99.90;;;;;;5013874;28;20970;-65
2024/01/19 11:22:43;;;;;;;35.30;17.40;;;3.20;99.90;;;;;;5013909;28;20477;-66
2024/01/19 11:25:18;;;;;;;34.67;16.73;;;3.30;99.90;;;;;;5013687;28;20459;-66
2024/01/19 11:27:53;;;;;;;27.73;15.67;;;3.70;99.90;;;;;;5013303;28;20498;-66
2024/01/19 11:30:32;;;;;;;29.40;16.90;;;4.10;99.90;;;;;;5013997;28;20453;-66
2024/01/19 11:33:16;;;;;;;32.27;16.73;;;4.30;99.90;;;;;;5018468;28;20878;-66
2024/01/19 11:35:48;;;;;;;35.43;19.07;;;3.90;99.90;;;;;;5034070;28;20452;-66
2024/01/19 11:38:42;;;;;;;40.73;23.30;;;3.80;99.90;;;;;;5033757;28;20452;-66
2024/01/19 11:41:11;;;;;;;36.60;17.80;;;3.80;99.90;;;;;;5033897;28;20462;-66
2024/01/19 11:43:42;;;;;;;46.50;18.50;;;3.90;99.90;;;;;;5033745;28;20472;-67
2024/01/19 11:46:09;;;;;;;32.53;17.90;;;3.80;99.90;;;;;;5028900;28;20480;-66
2024/01/19 11:48:42;;;;;;;39.50;19.37;;;3.70;99.90;;;;;;5021443;28;20491;-66
2024/01/19 11:51:09;;;;;;;32.37;18.53;;;3.60;99.90;;;;;;5013901;28;20449;-66
2024/01/19 11:53:55;;;;;;;38.63;19.73;;;3.30;99.90;;;;;;5030419;28;20499;-66
2024/01/19 11:56:24;;;;;;;36.87;22.00;;;2.90;99.90;;;;;;5033735;28;20455;-66
2024/01/19 11:58:51;;;;;;;35.23;23.00;;;2.70;99.90;;;;;;5024350;28;20453;-66
2024/01/19 12:01:18;;;;;;;40.63;22.57;;;2.60;99.90;;;;;;5033541;28;20452;-66
2024/01/19 12:03:46;;;;;;;38.10;20.80;;;2.60;99.90;;;;;;5033531;28;20479;-67
2024/01/19 12:06:16;;;;;;;42.33;20.30;;;2.70;99.90;;;;;;5031993;28;20491;-67
2024/01/19 12:08:42;;;;;;;41.50;21.33;;;2.60;99.90;;;;;;5033196;28;20490;-66
2024/01/19 12:11:11;;;;;;;37.93;20.40;;;2.80;99.90;;;;;;5033209;28;20452;-66
2024/01/19 12:13:41;;;;;;;39.90;20.07;;;2.60;99.90;;;;;;5024849;28;20977;-66
2024/01/19 12:16:08;;;;;;;34.77;19.60;;;2.70;99.90;;;;;;5033368;28;20462;-66